LSZHLSZS

Guest
Details From LSZH - Zurich
To LSZS - Samedan
Flight Number -
Tags decoded
Created
Modified
Stats Distance 106 nm / 196 km
Max Altitude 0 ft / 0 m
Waypoints 7
Social Downloads 2
Likes 0
Share VATSIM

Download

Looking for another format? Having issues loading an existing format? Contact us
Advertisement - Login to hide

Notes

Requested: LSZH ALBIX MOSIT SOPER PIXOS ABREG LSZS

Route

LSZH ALBIX MOSIT SOPER PIXOS ABREG LSZS

ID Type Via Altitude (ft/m) Position (lat/lon) Dist (leg/tot) Name
O LSZH APT - 0 / 0 47.46349 / 8.54996 - / 0 nm Zurich
ALBIX FIX - 0 / 0 47.24972 / 8.56444 12 / 12 nm
MOSIT FIX - 0 / 0 47.06917 / 8.74389 13 / 25 nm
SOPER FIX - 0 / 0 46.88944 / 8.94444 13 / 39 nm
PIXOS FIX - 0 / 0 46.60528 / 8.98306 17 / 56 nm
ABREG FIX - 0 / 0 46.30694 / 9.55139 29 / 86 nm
O LSZS APT - 0 / 0 46.53421 / 9.88394 19 / 105 nm Samedan

Altitude Profile

Advertisement - Login to hide

LSZH

Details ICAO LSZH (ZRH)
Name Zurich
Region Switzerland
Timezone Europe/Zurich (UTC+2.0)
Stats Elevation 1,416 ft / 432 m (AMSL)
Location 47.463500° 8.549950°
Runways 3
Magnetic Variation 2.430° E

METAR

LSZH 201450Z 29004KT 220V010 9999 FEW060 30/11 Q1019 NOSIG

Decode

TAF

TAF LSZH 201425Z 2015/2121 27007KT 9999 FEW060 TX30/2015Z TN16/2104Z TX30/2114Z BECMG 2017/2019 VRB03KT CAVOK BECMG 2109/2112 05007KT 9999 FEW060

Decode

Departure Runways

ID Width Length Bearing (true/mag) Surface Threshold Overrun Markings Lighting
10 197 ft / 60 m 8,196 ft / 2,498 m 95.99° / 93.56° CONCRETE 0 ft / 0 m 62 ft / 19 m APP CENTERLINE EDGE THRESHOLD SALS REIL-UNI
14 197 ft / 60 m 10,816 ft / 3,297 m 137.29° / 134.86° CONCRETE 492 ft / 150 m 75 ft / 23 m PREC-APP CENTERLINE EDGE THRESHOLD CALVERT-ILS TDZ REIL-UNI
16 197 ft / 60 m 12,181 ft / 3,713 m 155.03° / 152.60° CONCRETE 0 ft / 0 m 62 ft / 19 m PREC-APP CENTERLINE EDGE THRESHOLD CALVERT-ILS TDZ REIL-UNI
28 197 ft / 60 m 8,196 ft / 2,498 m 276.02° / 273.59° CONCRETE 0 ft / 0 m 276 ft / 84 m PREC-APP CENTERLINE EDGE THRESHOLD CALVERT-ILS REIL-UNI
32 197 ft / 60 m 10,816 ft / 3,297 m 317.32° / 314.89° CONCRETE 0 ft / 0 m 82 ft / 25 m APP CENTERLINE EDGE THRESHOLD SALS
34 197 ft / 60 m 12,181 ft / 3,713 m 335.05° / 332.62° CONCRETE 1,542 ft / 470 m 49 ft / 15 m PREC-APP CENTERLINE EDGE THRESHOLD CALVERT-ILS TDZ REIL-UNI

LSZS

Details ICAO LSZS (SMV)
Name Samedan
Region Switzerland
Timezone Europe/Zurich (UTC+2.0)
Stats Elevation 5,600 ft / 1,707 m (AMSL)
Location 46.534200° 9.883970°
Runways 1
Magnetic Variation 2.740° E

METAR

LSZS 201450Z 05013KT 9999 -RA FEW045 BKN050CB 15/10 Q1025 RMK W

Decode

TAF

Not found

Destination Runways

ID Width Length Bearing (true/mag) Surface Threshold Overrun Markings Lighting
03 131 ft / 40 m 6,045 ft / 1,842 m 29.15° / 26.41° ASPHALT 0 ft / 0 m 0 ft / 0 m APP EDGE THRESHOLD MALSR
21 131 ft / 40 m 6,045 ft / 1,842 m 209.15° / 206.41° ASPHALT 361 ft / 110 m 0 ft / 0 m APP EDGE THRESHOLD MALSR

Popular Alternatives